createdAt,value
2023-05-04T00:01:55.994Z,4.22
2023-05-04T00:04:21.752Z,2.50
2023-05-04T00:06:47.620Z,4.03
2023-05-04T00:09:14.593Z,2.88
2023-05-04T00:11:41.139Z,3.40
2023-05-04T00:14:07.126Z,3.50
2023-05-04T00:16:33.838Z,3.63
2023-05-04T00:18:59.811Z,4.20
2023-05-04T00:21:26.375Z,3.85
2023-05-04T00:23:52.175Z,3.55
2023-05-04T00:26:17.984Z,3.00
2023-05-04T00:28:43.813Z,4.10
2023-05-04T00:31:09.933Z,3.35
2023-05-04T00:33:35.876Z,3.60
2023-05-04T00:36:04.921Z,3.28
2023-05-04T00:38:30.844Z,3.92
2023-05-04T00:40:58.392Z,4.10
2023-05-04T00:43:25.572Z,4.72
2023-05-04T00:45:51.509Z,4.00
2023-05-04T00:48:17.479Z,4.47
2023-05-04T00:50:43.337Z,3.95
2023-05-04T00:53:10.080Z,4.43
2023-05-04T00:55:37.510Z,4.40
2023-05-04T00:58:03.324Z,3.30
2023-05-04T01:00:29.249Z,3.88
2023-05-04T01:02:55.136Z,3.40
2023-05-04T01:05:21.031Z,4.68
2023-05-04T01:08:13.219Z,3.58
2023-05-04T01:11:00.029Z,3.03
2023-05-04T01:13:27.493Z,2.80
2023-05-04T01:15:53.915Z,3.50
2023-05-04T01:18:19.749Z,3.25
2023-05-04T01:20:45.540Z,3.85
2023-05-04T01:23:11.489Z,3.40
2023-05-04T01:25:42.125Z,3.40
2023-05-04T01:28:11.919Z,3.38
2023-05-04T01:30:43.275Z,3.30
2023-05-04T01:33:09.613Z,3.88
2023-05-04T01:35:35.622Z,4.40
2023-05-04T01:38:02.054Z,4.57
2023-05-04T01:40:27.888Z,3.08
2023-05-04T01:42:53.732Z,3.90
2023-05-04T01:45:19.923Z,3.83
2023-05-04T01:47:45.790Z,4.05
2023-05-04T01:50:11.591Z,4.28
2023-05-04T01:52:37.414Z,3.17
2023-05-04T01:55:05.989Z,4.22
2023-05-04T01:57:31.918Z,3.90
2023-05-04T01:59:57.741Z,3.42
2023-05-04T02:02:24.372Z,4.30
2023-05-04T02:04:50.250Z,3.72
2023-05-04T02:07:16.478Z,3.22
2023-05-04T02:09:45.005Z,4.20
2023-05-04T02:12:10.825Z,3.88
2023-05-04T02:14:36.824Z,3.70
2023-05-04T02:17:02.607Z,4.20
2023-05-04T02:19:28.369Z,4.05
2023-05-04T02:21:54.219Z,2.90
2023-05-04T02:24:20.085Z,3.90
2023-05-04T02:26:45.826Z,4.72
2023-05-04T02:29:11.768Z,4.13
2023-05-04T02:31:37.654Z,3.72
2023-05-04T02:34:03.592Z,3.38
2023-05-04T02:36:29.420Z,4.00
2023-05-04T02:38:55.448Z,3.78
2023-05-04T02:41:21.317Z,3.30
2023-05-04T02:43:53.667Z,4.65
2023-05-04T02:46:19.549Z,5.25
2023-05-04T02:48:45.513Z,4.45
2023-05-04T02:51:11.360Z,4.18
2023-05-04T02:53:37.161Z,3.90
2023-05-04T02:56:03.087Z,3.67
2023-05-04T02:58:30.957Z,3.25
2023-05-04T03:00:59.604Z,4.25
2023-05-04T03:03:25.498Z,4.30
2023-05-04T03:05:51.323Z,3.47
2023-05-04T03:08:17.130Z,4.13
2023-05-04T03:10:43.015Z,5.03
2023-05-04T03:13:08.936Z,4.00
2023-05-04T03:15:34.963Z,3.50
2023-05-04T03:18:01.045Z,3.60
2023-05-04T03:20:27.004Z,4.30
2023-05-04T03:22:52.758Z,4.05
2023-05-04T03:25:21.418Z,4.97
2023-05-04T03:27:47.738Z,4.60
2023-05-04T03:30:13.665Z,4.35
2023-05-04T03:32:40.219Z,3.53
2023-05-04T03:35:06.871Z,4.53
2023-05-04T03:37:32.706Z,4.25
2023-05-04T03:39:58.571Z,5.28
2023-05-04T03:42:24.422Z,4.60
2023-05-04T03:44:50.234Z,3.90
2023-05-04T03:47:16.132Z,5.28
2023-05-04T03:49:41.971Z,4.80
2023-05-04T03:52:07.775Z,3.78
2023-05-04T03:54:33.593Z,5.18
2023-05-04T03:56:59.442Z,3.75
2023-05-04T03:59:25.332Z,4.47
2023-05-04T04:01:51.534Z,3.30
2023-05-04T04:04:17.729Z,4.72
2023-05-04T04:06:44.355Z,4.45
2023-05-04T04:09:10.590Z,4.55
2023-05-04T04:11:36.471Z,4.00
2023-05-04T04:14:06.099Z,3.38
2023-05-04T04:16:32.079Z,3.90
2023-05-04T04:18:58.363Z,3.30
2023-05-04T04:21:24.634Z,3.22
2023-05-04T04:23:50.648Z,3.78
2023-05-04T04:26:18.290Z,5.00
2023-05-04T04:28:51.940Z,3.78
2023-05-04T04:31:19.922Z,3.63
2023-05-04T04:33:47.294Z,4.10
2023-05-04T04:36:16.364Z,3.42
2023-05-04T04:38:42.921Z,3.95
2023-05-04T04:41:11.406Z,4.32
2023-05-04T04:43:37.920Z,4.07
2023-05-04T04:46:04.173Z,3.50
2023-05-04T04:48:31.615Z,3.53
2023-05-04T04:51:01.340Z,3.60
2023-05-04T04:53:27.588Z,3.73
2023-05-04T04:55:54.921Z,3.13
2023-05-04T04:58:21.561Z,3.58
2023-05-04T05:00:52.438Z,2.50
2023-05-04T05:03:23.098Z,4.20
2023-05-04T05:08:16.358Z,2.92
2023-05-04T05:10:44.211Z,3.28
2023-05-04T05:13:10.732Z,3.80
2023-05-04T05:16:27.549Z,3.92
2023-05-04T05:18:55.929Z,2.78
2023-05-04T05:21:25.442Z,6.13
2023-05-04T05:23:55.057Z,3.55
2023-05-04T05:54:41.825Z,3.05
2023-05-04T05:57:10.669Z,3.63
2023-05-04T05:59:37.305Z,4.25
2023-05-04T06:02:05.975Z,3.60
2023-05-04T06:04:33.343Z,3.22
2023-05-04T06:07:00.784Z,3.35
2023-05-04T06:09:28.880Z,3.75
2023-05-04T06:12:00.176Z,4.18
2023-05-04T06:14:34.232Z,3.05
2023-05-04T06:17:01.428Z,2.97
2023-05-04T06:19:30.947Z,3.75
2023-05-04T06:21:59.367Z,3.08
2023-05-04T06:24:27.562Z,3.22
2023-05-04T06:26:58.251Z,3.25
2023-05-04T06:31:56.594Z,5.70
2023-05-04T06:34:22.907Z,4.20
2023-05-04T06:36:50.068Z,3.15
2023-05-04T06:39:16.646Z,3.45
2023-05-04T06:41:42.849Z,4.00
2023-05-04T06:44:09.305Z,3.88
2023-05-04T06:46:36.674Z,4.30
2023-05-04T06:49:04.342Z,3.85
2023-05-04T06:51:31.480Z,2.85
2023-05-04T06:53:59.498Z,4.05
2023-05-04T06:56:28.432Z,3.45
2023-05-04T06:58:55.192Z,3.88
2023-05-04T07:01:35.880Z,3.80
2023-05-04T07:06:31.518Z,3.40
2023-05-04T07:09:00.519Z,3.50
2023-05-04T07:11:30.448Z,3.13
2023-05-04T07:14:12.679Z,3.22
2023-05-04T07:16:42.260Z,2.20
2023-05-04T07:19:19.791Z,2.80
2023-05-04T07:21:49.637Z,4.30
2023-05-04T07:24:16.017Z,3.33
2023-05-04T07:26:42.238Z,3.22
2023-05-04T07:29:09.585Z,3.47
2023-05-04T07:31:36.099Z,3.20
2023-05-04T07:34:02.375Z,2.60
2023-05-04T07:36:29.382Z,3.15
2023-05-04T07:38:55.930Z,2.80
2023-05-04T07:41:22.102Z,2.33
2023-05-04T07:44:01.186Z,2.65
2023-05-04T07:46:30.555Z,3.47
2023-05-04T07:48:59.896Z,2.30
2023-05-04T07:51:26.546Z,2.47
2023-05-04T07:53:53.068Z,2.80
2023-05-04T07:56:28.784Z,2.95
2023-05-04T07:58:55.634Z,2.08
2023-05-04T08:01:22.793Z,2.80
2023-05-04T08:03:48.933Z,3.58
2023-05-04T08:06:17.206Z,2.88
2023-05-04T08:08:44.675Z,2.67
2023-05-04T08:11:20.076Z,2.75
2023-05-04T08:13:59.774Z,2.65
2023-05-04T08:16:26.920Z,2.13
2023-05-04T08:18:55.454Z,2.90
2023-05-04T08:21:21.792Z,3.42
2023-05-04T08:23:48.682Z,2.75
2023-05-04T08:29:05.595Z,2.80
2023-05-04T08:31:32.482Z,2.22
2023-05-04T08:33:58.470Z,3.10
2023-05-04T08:36:25.833Z,2.40
2023-05-04T08:38:55.432Z,2.55
2023-05-04T08:41:25.391Z,2.00
2023-05-04T08:44:01.313Z,1.38
2023-05-04T08:46:38.850Z,1.92
2023-05-04T08:51:51.248Z,1.80
2023-05-04T08:54:19.725Z,2.15
2023-05-04T08:56:47.338Z,2.00
2023-05-04T08:59:18.552Z,2.53
2023-05-04T09:04:29.349Z,2.22
2023-05-04T09:09:40.776Z,1.75
2023-05-04T09:14:55.181Z,2.60
2023-05-04T09:17:29.586Z,1.67
2023-05-04T09:20:12.506Z,1.58
2023-05-04T09:22:40.415Z,2.47
2023-05-04T09:28:04.885Z,2.38
2023-05-04T09:30:31.872Z,2.13
2023-05-04T09:33:01.166Z,1.65
2023-05-04T09:35:33.485Z,2.00
2023-05-04T09:40:44.223Z,1.73
2023-05-04T09:43:13.568Z,1.60
2023-05-04T09:48:27.689Z,2.08
2023-05-04T09:50:55.093Z,3.10
2023-05-04T09:53:25.270Z,1.92
2023-05-04T09:56:12.026Z,2.40
2023-05-04T09:58:38.844Z,2.67
2023-05-04T10:01:09.488Z,2.55
2023-05-04T10:08:49.513Z,1.98
2023-05-04T10:11:22.965Z,1.73
2023-05-04T10:14:43.074Z,1.70
2023-05-04T10:17:20.563Z,2.05
2023-05-04T10:22:52.436Z,1.88
2023-05-04T10:28:32.806Z,2.35
2023-05-04T10:31:08.335Z,3.05
2023-05-04T10:34:06.441Z,2.33
2023-05-04T10:39:27.605Z,2.75
2023-05-04T10:47:45.065Z,1.83
2023-05-04T10:50:17.240Z,1.60
2023-05-04T10:58:35.988Z,2.00
2023-05-04T11:01:28.173Z,2.25
2023-05-04T11:03:55.077Z,3.42
2023-05-04T11:06:24.763Z,2.20
2023-05-04T13:37:40.169Z,1.80
2023-05-04T13:42:50.800Z,2.05
2023-05-04T13:45:18.252Z,1.60
2023-05-04T13:47:47.736Z,2.20
2023-05-04T13:55:48.877Z,2.25
2023-05-04T13:58:16.713Z,2.22
2023-05-04T14:01:40.737Z,1.60
2023-05-04T14:04:11.009Z,1.40
2023-05-04T14:06:37.940Z,2.08
2023-05-04T14:09:09.052Z,1.98
2023-05-04T14:11:40.027Z,2.17
2023-05-04T14:14:07.274Z,3.08
2023-05-04T14:16:42.085Z,2.17
2023-05-04T14:19:10.845Z,1.75
2023-05-04T14:21:38.599Z,2.72
2023-05-04T14:24:12.231Z,1.70
2023-05-04T14:26:50.449Z,1.60
2023-05-04T14:29:16.890Z,1.67
2023-05-04T14:31:44.237Z,1.80
2023-05-04T14:34:11.838Z,2.78
2023-05-04T14:36:42.986Z,2.20
2023-05-04T14:39:10.427Z,3.35
2023-05-04T14:41:49.542Z,2.15
2023-05-04T14:44:16.896Z,1.98
2023-05-04T14:46:43.069Z,2.38
2023-05-04T14:49:10.117Z,2.10
2023-05-04T14:51:46.882Z,3.25
2023-05-04T14:54:17.500Z,2.40
2023-05-04T14:57:23.124Z,2.25
2023-05-04T15:08:38.992Z,3.53
2023-05-04T15:11:07.963Z,1.88
2023-05-04T15:13:40.901Z,1.40
2023-05-04T15:18:49.952Z,2.25
2023-05-04T15:21:28.055Z,2.17
2023-05-04T15:23:55.038Z,3.05
2023-05-04T15:35:23.502Z,2.13
2023-05-04T15:37:55.228Z,1.58
2023-05-04T15:43:10.844Z,1.73
2023-05-04T15:45:40.334Z,1.70
2023-05-04T15:48:11.953Z,1.98
2023-05-04T15:50:39.806Z,1.92
2023-05-04T15:53:07.525Z,1.98
2023-05-04T15:55:34.677Z,1.63
2023-05-04T15:58:01.965Z,1.80
2023-05-04T16:00:30.213Z,1.80
2023-05-04T16:08:27.386Z,3.28
2023-05-04T16:10:55.379Z,1.65
2023-05-04T16:13:27.942Z,1.55
2023-05-04T16:16:10.728Z,2.30
2023-05-04T16:18:37.489Z,2.55
2023-05-04T16:21:03.938Z,2.90
2023-05-04T16:23:31.926Z,4.57
2023-05-04T16:26:01.438Z,3.20
2023-05-04T16:28:29.692Z,3.30
2023-05-04T16:30:56.939Z,3.53
2023-05-04T16:33:26.469Z,2.70
2023-05-04T16:35:53.107Z,2.55
2023-05-04T16:38:19.920Z,1.80
2023-05-04T16:40:46.112Z,1.90
2023-05-04T16:46:05.314Z,1.85
2023-05-04T16:48:33.303Z,1.67
2023-05-04T16:51:00.748Z,3.05
2023-05-04T16:53:27.849Z,1.80
2023-05-04T17:04:43.500Z,1.90
2023-05-04T17:07:11.103Z,2.40
2023-05-04T17:09:39.085Z,1.92
2023-05-04T17:12:05.824Z,1.42
2023-05-04T17:19:44.104Z,2.22
2023-05-04T17:22:13.154Z,1.90
2023-05-04T17:24:40.096Z,1.60
2023-05-04T17:29:53.853Z,1.90
2023-05-04T17:32:20.612Z,1.83
2023-05-04T17:34:48.385Z,1.88
2023-05-04T17:37:19.704Z,2.20
2023-05-04T17:39:46.851Z,1.98
2023-05-04T17:42:17.000Z,2.00
2023-05-04T17:44:45.256Z,2.40
2023-05-04T17:47:14.237Z,3.38
2023-05-04T17:49:40.991Z,3.30
2023-05-04T17:52:13.610Z,2.78
2023-05-04T17:54:42.595Z,1.83
2023-05-04T17:57:09.146Z,2.83
2023-05-04T17:59:39.210Z,2.78
2023-05-04T18:02:05.792Z,2.40
2023-05-04T18:04:35.332Z,2.08
2023-05-04T18:07:10.824Z,3.08
2023-05-04T18:09:37.965Z,2.05
2023-05-04T18:12:09.122Z,1.63
2023-05-04T18:14:36.322Z,2.58
2023-05-04T18:19:43.830Z,3.30
2023-05-04T18:30:52.852Z,3.60
2023-05-04T18:33:19.399Z,2.95
2023-05-04T18:35:46.598Z,4.00
2023-05-04T18:38:12.813Z,3.67
2023-05-04T18:43:23.518Z,4.45
2023-05-04T18:45:53.140Z,3.75
2023-05-04T18:48:23.093Z,4.50
2023-05-04T18:50:50.959Z,4.00
2023-05-04T18:53:17.465Z,3.90
2023-05-04T18:55:44.363Z,3.33
2023-05-04T18:58:11.141Z,3.85
2023-05-04T19:00:45.953Z,3.90
2023-05-04T19:03:13.910Z,4.18
2023-05-04T19:05:41.224Z,3.53
2023-05-04T19:08:07.460Z,3.22
2023-05-04T19:10:34.288Z,2.50
2023-05-04T19:13:01.803Z,2.53
2023-05-04T19:15:30.671Z,2.60
2023-05-04T19:17:57.327Z,3.15
2023-05-04T19:20:26.697Z,3.80
2023-05-04T19:22:54.894Z,3.65
2023-05-04T19:25:33.719Z,3.10
2023-05-04T19:28:09.472Z,3.55
2023-05-04T19:34:01.603Z,4.53
2023-05-04T19:36:28.551Z,3.28
2023-05-04T19:38:55.980Z,2.70
2023-05-04T19:41:22.485Z,3.15
2023-05-04T19:43:49.167Z,4.03
2023-05-04T19:46:18.685Z,4.45
2023-05-04T19:48:45.037Z,4.00
2023-05-04T19:51:11.284Z,3.83
2023-05-04T19:53:37.891Z,4.65
2023-05-04T19:56:05.584Z,5.18
2023-05-04T19:58:41.885Z,3.40
2023-05-04T20:01:13.601Z,4.38
2023-05-04T20:03:41.450Z,3.67
2023-05-04T20:06:07.916Z,3.67
2023-05-04T20:08:36.109Z,3.47
2023-05-04T20:11:02.995Z,3.58
2023-05-04T20:13:31.237Z,4.13
2023-05-04T20:16:02.143Z,5.05
2023-05-04T20:18:30.651Z,4.40
2023-05-04T20:20:57.024Z,3.78
2023-05-04T20:23:24.422Z,4.50
2023-05-04T20:25:50.856Z,3.50
2023-05-04T20:33:44.198Z,3.13
2023-05-04T20:36:12.576Z,4.00
2023-05-04T20:38:39.542Z,2.70
2023-05-04T20:41:07.486Z,3.75
2023-05-04T20:43:34.284Z,3.13
2023-05-04T20:46:01.702Z,3.22
2023-05-04T20:48:28.123Z,2.85
2023-05-04T20:51:06.536Z,3.25
2023-05-04T20:53:39.062Z,3.45
2023-05-04T20:56:06.462Z,3.58
2023-05-04T20:58:34.349Z,4.28
2023-05-04T21:01:06.755Z,2.78
2023-05-04T21:03:34.158Z,3.78
2023-05-04T21:06:00.873Z,3.08
2023-05-04T21:08:28.102Z,2.95
2023-05-04T21:10:54.244Z,3.45
2023-05-04T21:13:20.593Z,2.92
2023-05-04T21:18:27.202Z,3.30
2023-05-04T21:20:53.942Z,2.65
2023-05-04T21:23:20.089Z,2.90
2023-05-04T21:25:46.623Z,2.85
2023-05-04T21:28:13.547Z,3.70
2023-05-04T21:30:43.508Z,2.85
2023-05-04T21:33:09.895Z,2.50
2023-05-04T21:35:36.751Z,3.38
2023-05-04T21:38:06.374Z,2.60
2023-05-04T21:40:35.049Z,2.90
2023-05-04T21:43:02.383Z,3.17
2023-05-04T21:45:34.649Z,3.00
2023-05-04T21:48:06.339Z,2.53
2023-05-04T21:53:17.662Z,2.40
2023-05-04T21:55:44.959Z,3.15
2023-05-04T21:58:10.909Z,2.80
2023-05-04T22:00:44.862Z,2.88
2023-05-04T22:03:10.733Z,2.70
2023-05-04T22:05:36.551Z,2.55
2023-05-04T22:08:02.792Z,3.08
2023-05-04T22:10:28.616Z,3.33
2023-05-04T22:12:54.357Z,2.70
2023-05-04T22:15:20.203Z,2.90
2023-05-04T22:17:46.074Z,2.50
2023-05-04T22:20:12.142Z,3.28
2023-05-04T22:22:37.871Z,3.75
2023-05-04T22:25:03.788Z,3.13
2023-05-04T22:27:29.633Z,2.85
2023-05-04T22:29:55.423Z,2.88
2023-05-04T22:32:21.170Z,2.70
2023-05-04T22:34:47.058Z,2.92
2023-05-04T22:37:12.827Z,3.15
2023-05-04T22:39:38.575Z,3.70
2023-05-04T22:42:04.367Z,2.58
2023-05-04T22:44:30.472Z,2.45
2023-05-04T22:46:56.574Z,3.63
2023-05-04T22:49:22.373Z,3.22
2023-05-04T22:51:48.198Z,2.92
2023-05-04T22:54:14.107Z,3.20
2023-05-04T22:56:39.945Z,3.53
2023-05-04T22:59:05.702Z,2.78
2023-05-04T23:01:31.787Z,2.88
2023-05-04T23:03:57.648Z,2.22
2023-05-04T23:06:23.650Z,2.40
2023-05-04T23:08:49.391Z,3.33
2023-05-04T23:11:21.381Z,2.70
2023-05-04T23:13:47.519Z,2.40
2023-05-04T23:16:13.334Z,2.60
2023-05-04T23:18:39.197Z,2.33
2023-05-04T23:21:05.073Z,2.15
2023-05-04T23:23:30.799Z,2.40
2023-05-04T23:25:56.610Z,3.60
2023-05-04T23:28:22.367Z,2.70
2023-05-04T23:30:48.142Z,3.25
2023-05-04T23:33:14.066Z,3.10
2023-05-04T23:35:39.881Z,2.00
2023-05-04T23:38:05.672Z,3.05
2023-05-04T23:40:31.547Z,2.83
2023-05-04T23:42:57.544Z,2.97
2023-05-04T23:45:23.313Z,2.40
2023-05-04T23:47:49.154Z,2.15
2023-05-04T23:50:14.995Z,2.30
2023-05-04T23:52:40.821Z,2.67
2023-05-04T23:55:06.669Z,2.50
2023-05-04T23:57:32.506Z,2.72
2023-05-04T23:59:58.244Z,2.17
